Time;durP1;ratioP1;P1;durP2;ratioP2;P2;SDS_P1;SDS_P2;PMS_P1;PMS_P2;Temp;Humidity;BMP_temperature;BMP_pressure;BME280_temperature;BME280_humidity;BME280_pressure;Samples;Min_cycle;Max_cycle;Signal;HPM_P1;HPM_P2
2021/06/29 00:02:00;;;;;;;;;;;;;;;;;;5114557;27;20037;-65
2021/06/29 00:04:26;;;;;;;;;;;;;;;;;;5113430;27;19915;-66
2021/06/29 00:06:52;;;;;;;;;;;;;;;;;;5114398;27;19964;-65
2021/06/29 00:09:18;;;;;;;;;;;;;;;;;;5110288;27;19916;-65
2021/06/29 00:11:44;;;;;;;;;;;;;;;;;;5115977;27;20495;-65
2021/06/29 00:14:09;;;;;;;;;;;;;;;;;;5116288;27;20014;-65
2021/06/29 00:16:35;;;;;;;;;;;;;;;;;;5113540;27;19911;-66
2021/06/29 00:19:01;;;;;;;;;;;;;;;;;;5113173;27;19911;-65
2021/06/29 00:21:27;;;;;;;;;;;;;;;;;;5111740;27;20391;-65
2021/06/29 00:23:53;;;;;;;;;;;;;;;;;;5113757;27;19908;-65
2021/06/29 00:26:19;;;;;;;;;;;;;;;;;;5114939;27;19960;-65
2021/06/29 00:28:45;;;;;;;;;;;;;;;;;;5117425;27;19954;-65
2021/06/29 00:31:11;;;;;;;;;;;;;;;;;;5121239;27;19912;-65
2021/06/29 00:33:37;;;;;;;;;;;;;;;;;;5112278;27;19955;-65
2021/06/29 00:36:03;;;;;;;;;;;;;;;;;;5110925;27;19951;-65
2021/06/29 00:38:29;;;;;;;;;;;;;;;;;;5114867;27;19907;-65
2021/06/29 00:40:55;;;;;;;;;;;;;;;;;;5113991;27;19968;-65
2021/06/29 00:43:21;;;;;;;;;;;;;;;;;;5112836;27;20275;-65
2021/06/29 00:45:47;;;;;;;;;;;;;;;;;;5113257;27;19918;-65
2021/06/29 00:48:13;;;;;;;;;;;;;;;;;;5109129;28;20492;-65
2021/06/29 00:50:38;;;;;;;;;;;;;;;;;;5116649;27;19966;-65
2021/06/29 00:53:04;;;;;;;;;;;;;;;;;;5113154;27;19916;-65
2021/06/29 00:55:31;;;;;;;;;;;;;;;;;;5113368;27;19919;-65
2021/06/29 00:57:57;;;;;;;;;;;;;;;;;;5110728;28;19912;-65
2021/06/29 01:00:23;;;;;;;;;;;;;;;;;;5124464;27;19920;-65
2021/06/29 01:02:49;;;;;;;;;;;;;;;;;;5114485;27;19943;-66
2021/06/29 01:05:14;;;;;;;;;;;;;;;;;;5114356;27;19919;-65
2021/06/29 01:07:41;;;;;;;;;;;;;;;;;;5113238;27;19998;-66
2021/06/29 01:10:07;;;;;;;;;;;;;;;;;;5112739;28;20260;-66
2021/06/29 01:12:33;;;;;;;;;;;;;;;;;;5113605;27;19961;-66
2021/06/29 01:14:58;;;;;;;;;;;;;;;;;;5112024;28;19915;-66
2021/06/29 01:17:25;;;;;;;;;;;;;;;;;;5114303;27;20014;-66
2021/06/29 01:19:51;;;;;;;;;;;;;;;;;;5113431;28;19915;-65
2021/06/29 01:22:19;;;;;;;;;;;;;;;;;;5112627;28;19916;-65
2021/06/29 01:24:50;;;;;;;;;;;;;;;;;;5113237;28;20370;-65
2021/06/29 01:27:34;;;;;;;;;;;;;;;;;;5108169;28;19995;-65
2021/06/29 01:32:27;;;;;;;;;;;;;;;;;;5115103;28;19915;-65
2021/06/29 01:34:53;;;;;;;;;;;;;;;;;;5112643;28;19956;-65
2021/06/29 01:37:20;;;;;;;;;;;;;;;;;;5112204;28;19916;-65
2021/06/29 01:39:45;;;;;;;;;;;;;;;;;;5113020;28;19968;-66
2021/06/29 01:42:11;;;;;;;;;;;;;;;;;;5108905;28;20378;-65
2021/06/29 01:44:37;;;;;;;;;;;;;;;;;;5116184;28;19915;-65
2021/06/29 01:47:06;;;;;;;;;;;;;;;;;;5118987;28;19926;-66
2021/06/29 01:49:31;;;;;;;;;;;;;;;;;;5114546;28;19912;-65
2021/06/29 01:51:57;;;;;;;;;;;;;;;;;;5098696;27;20294;-65
2021/06/29 01:54:23;;;;;;;;;;;;;;;;;;5113306;27;19912;-65
2021/06/29 01:56:49;;;;;;;;;;;;;;;;;;5117425;27;20444;-65
2021/06/29 01:59:19;;;;;;;;;;;;;;;;;;5126353;27;19934;-65
2021/06/29 02:01:45;;;;;;;;;;;;;;;;;;5119752;27;19924;-65
2021/06/29 02:04:11;;;;;;;;;;;;;;;;;;5116370;27;19916;-66
2021/06/29 02:06:37;;;;;;;;;;;;;;;;;;5115471;27;19965;-66
2021/06/29 02:09:03;;;;;;;;;;;;;;;;;;5114077;28;19915;-61
2021/06/29 02:11:29;;;;;;;;;;;;;;;;;;5118876;27;19915;-61
2021/06/29 02:13:54;;;;;;;;;;;;;;;;;;5117642;27;19920;-61
2021/06/29 02:16:20;;;;;;;;;;;;;;;;;;5115857;27;20006;-61
2021/06/29 02:18:46;;;;;;;;;;;;;;;;;;5116301;27;19915;-61
2021/06/29 02:21:12;;;;;;;;;;;;;;;;;;5112125;28;20379;-61
2021/06/29 02:23:38;;;;;;;;;;;;;;;;;;5119462;27;19908;-61
2021/06/29 02:26:04;;;;;;;;;;;;;;;;;;5115942;27;19912;-60
2021/06/29 02:28:30;;;;;;;;;;;;;;;;;;5117810;27;19961;-61
2021/06/29 02:30:56;;;;;;;;;;;;;;;;;;5125953;27;19912;-61
2021/06/29 02:33:22;;;;;;;;;;;;;;;;;;5112975;27;19923;-61
2021/06/29 02:35:48;;;;;;;;;;;;;;;;;;5117476;27;19908;-61
2021/06/29 02:38:13;;;;;;;;;;;;;;;;;;5118137;27;19915;-60
2021/06/29 02:40:39;;;;;;;;;;;;;;;;;;5115477;27;19920;-60
2021/06/29 02:43:05;;;;;;;;;;;;;;;;;;5115891;27;19911;-60
2021/06/29 02:45:31;;;;;;;;;;;;;;;;;;5113872;27;19916;-60
2021/06/29 02:47:58;;;;;;;;;;;;;;;;;;5114751;27;19908;-60
2021/06/29 02:50:24;;;;;;;;;;;;;;;;;;5117492;27;19911;-60
2021/06/29 02:52:49;;;;;;;;;;;;;;;;;;5115933;27;19982;-60
2021/06/29 02:55:15;;;;;;;;;;;;;;;;;;5115095;27;19920;-60
2021/06/29 02:57:41;;;;;;;;;;;;;;;;;;5111025;28;19908;-60
2021/06/29 03:00:07;;;;;;;;;;;;;;;;;;5128282;27;19916;-60
2021/06/29 03:02:33;;;;;;;;;;;;;;;;;;5118497;27;20346;-60
2021/06/29 03:04:59;;;;;;;;;;;;;;;;;;5115011;27;19908;-60
2021/06/29 03:07:25;;;;;;;;;;;;;;;;;;5115072;27;20278;-60
2021/06/29 03:09:51;;;;;;;;;;;;;;;;;;5114951;27;20336;-60
2021/06/29 03:12:17;;;;;;;;;;;;;;;;;;5113333;27;19920;-60
2021/06/29 03:14:42;;;;;;;;;;;;;;;;;;5099114;28;19954;-60
2021/06/29 03:17:08;;;;;;;;;;;;;;;;;;5115944;27;20027;-60
2021/06/29 03:19:34;;;;;;;;;;;;;;;;;;5115064;27;20402;-60
2021/06/29 03:22:00;;;;;;;;;;;;;;;;;;5114902;27;19935;-60
2021/06/29 03:24:26;;;;;;;;;;;;;;;;;;5112569;27;19919;-60
2021/06/29 03:26:52;;;;;;;;;;;;;;;;;;5115429;27;20041;-60
2021/06/29 03:29:18;;;;;;;;;;;;;;;;;;5124585;27;19993;-60
2021/06/29 03:31:44;;;;;;;;;;;;;;;;;;5118043;27;20389;-60
2021/06/29 03:34:09;;;;;;;;;;;;;;;;;;5114930;27;19916;-60
2021/06/29 03:36:36;;;;;;;;;;;;;;;;;;5113516;27;19911;-60
2021/06/29 03:39:02;;;;;;;;;;;;;;;;;;5112574;27;22625;-60
2021/06/29 03:41:28;;;;;;;;;;;;;;;;;;5116632;27;20166;-60
2021/06/29 03:43:54;;;;;;;;;;;;;;;;;;5114860;27;19987;-60
2021/06/29 03:46:19;;;;;;;;;;;;;;;;;;5114936;27;20344;-60
2021/06/29 03:48:45;;;;;;;;;;;;;;;;;;5113931;27;19930;-60
2021/06/29 03:51:11;;;;;;;;;;;;;;;;;;5092332;28;20376;-60
2021/06/29 03:53:37;;;;;;;;;;;;;;;;;;5118519;27;20010;-60
2021/06/29 03:56:03;;;;;;;;;;;;;;;;;;5114582;27;19916;-60
2021/06/29 03:58:29;;;;;;;;;;;;;;;;;;5116359;27;20379;-60
2021/06/29 04:00:55;;;;;;;;;;;;;;;;;;5124346;27;19923;-60
2021/06/29 04:03:20;;;;;;;;;;;;;;;;;;5110951;27;19959;-60
2021/06/29 04:05:46;;;;;;;;;;;;;;;;;;5115725;27;19908;-60
2021/06/29 04:08:12;;;;;;;;;;;;;;;;;;5114326;27;19923;-60
2021/06/29 04:10:38;;;;;;;;;;;;;;;;;;5113710;27;19927;-60
2021/06/29 04:13:04;;;;;;;;;;;;;;;;;;5114974;28;19943;-60
2021/06/29 04:15:30;;;;;;;;;;;;;;;;;;5093942;27;19993;-60
2021/06/29 04:17:56;;;;;;;;;;;;;;;;;;5113244;27;19943;-60
2021/06/29 04:20:22;;;;;;;;;;;;;;;;;;5115121;27;19960;-60
2021/06/29 04:22:48;;;;;;;;;;;;;;;;;;5114035;27;19911;-60
2021/06/29 04:25:13;;;;;;;;;;;;;;;;;;5114012;27;19912;-60
2021/06/29 04:27:39;;;;;;;;;;;;;;;;;;5109089;28;20027;-60
2021/06/29 04:30:05;;;;;;;;;;;;;;;;;;5108959;27;20373;-60
2021/06/29 04:32:31;;;;;;;;;;;;;;;;;;5116542;27;19908;-60
2021/06/29 04:34:57;;;;;;;;;;;;;;;;;;5114292;27;19955;-60
2021/06/29 04:37:23;;;;;;;;;;;;;;;;;;5113119;27;19951;-60
2021/06/29 04:39:49;;;;;;;;;;;;;;;;;;5113672;27;20020;-60
2021/06/29 04:42:15;;;;;;;;;;;;;;;;;;5109580;28;19999;-60
2021/06/29 04:44:41;;;;;;;;;;;;;;;;;;5116003;27;19994;-60
2021/06/29 04:47:07;;;;;;;;;;;;;;;;;;5115295;27;19971;-59
2021/06/29 04:49:33;;;;;;;;;;;;;;;;;;5113394;27;19912;-59
2021/06/29 04:51:59;;;;;;;;;;;;;;;;;;5113223;27;19911;-59
2021/06/29 04:54:25;;;;;;;;;;;;;;;;;;5110493;27;19916;-59
2021/06/29 04:56:50;;;;;;;;;;;;;;;;;;5114757;27;20351;-59
2021/06/29 04:59:16;;;;;;;;;;;;;;;;;;5118957;27;19911;-60
2021/06/29 05:01:42;;;;;;;;;;;;;;;;;;5112628;27;19920;-60
2021/06/29 05:04:08;;;;;;;;;;;;;;;;;;5112842;27;20405;-60
2021/06/29 05:06:34;;;;;;;;;;;;;;;;;;5111314;27;19911;-59
2021/06/29 05:09:00;;;;;;;;;;;;;;;;;;5111279;27;19907;-59
2021/06/29 05:11:26;;;;;;;;;;;;;;;;;;5115330;28;19908;-59
2021/06/29 05:13:52;;;;;;;;;;;;;;;;;;5114898;27;19977;-59
2021/06/29 05:16:17;;;;;;;;;;;;;;;;;;5113373;27;19918;-60
2021/06/29 05:18:43;;;;;;;;;;;;;;;;;;5112626;27;20386;-60
2021/06/29 05:21:09;;;;;;;;;;;;;;;;;;5091843;28;19920;-62
2021/06/29 05:23:35;;;;;;;;;;;;;;;;;;5116357;28;19955;-62
2021/06/29 05:26:01;;;;;;;;;;;;;;;;;;5119565;27;20333;-61
2021/06/29 05:28:27;;;;;;;;;;;;;;;;;;5121261;27;19912;-61
2021/06/29 05:30:55;;;;;;;;;;;;;;;;;;5130194;27;19912;-61
2021/06/29 05:33:21;;;;;;;;;;;;;;;;;;5116307;27;20367;-61
2021/06/29 05:35:47;;;;;;;;;;;;;;;;;;5120089;27;19960;-61
2021/06/29 05:38:12;;;;;;;;;;;;;;;;;;5120748;27;19911;-61
2021/06/29 05:40:39;;;;;;;;;;;;;;;;;;5119287;27;20070;-61
2021/06/29 05:43:06;;;;;;;;;;;;;;;;;;5118793;27;19915;-61
2021/06/29 05:45:32;;;;;;;;;;;;;;;;;;5117349;27;19916;-61
2021/06/29 05:47:58;;;;;;;;;;;;;;;;;;5118751;27;19914;-61
2021/06/29 05:50:24;;;;;;;;;;;;;;;;;;5120849;27;19908;-61
2021/06/29 05:52:50;;;;;;;;;;;;;;;;;;5121070;27;19911;-61
2021/06/29 05:55:16;;;;;;;;;;;;;;;;;;5119046;27;19919;-61
2021/06/29 05:57:42;;;;;;;;;;;;;;;;;;5115056;27;19912;-61
2021/06/29 06:00:08;;;;;;;;;;;;;;;;;;5132066;27;19924;-61
2021/06/29 06:02:33;;;;;;;;;;;;;;;;;;5104897;28;19908;-61
2021/06/29 06:04:59;;;;;;;;;;;;;;;;;;5119593;27;19912;-61
2021/06/29 06:07:25;;;;;;;;;;;;;;;;;;5114478;28;20386;-61
2021/06/29 06:09:51;;;;;;;;;;;;;;;;;;5118790;27;19927;-61
2021/06/29 06:12:17;;;;;;;;;;;;;;;;;;5115459;27;20291;-61
2021/06/29 06:14:43;;;;;;;;;;;;;;;;;;5121774;27;19916;-61
2021/06/29 06:17:09;;;;;;;;;;;;;;;;;;5120012;27;19912;-61
2021/06/29 06:19:34;;;;;;;;;;;;;;;;;;5118067;27;19916;-61
2021/06/29 06:22:00;;;;;;;;;;;;;;;;;;5118487;27;19926;-61
2021/06/29 06:24:26;;;;;;;;;;;;;;;;;;5087017;27;19912;-61
2021/06/29 06:26:52;;;;;;;;;;;;;;;;;;5119493;27;19907;-61
2021/06/29 06:29:18;;;;;;;;;;;;;;;;;;5128885;27;19908;-61
2021/06/29 06:31:44;;;;;;;;;;;;;;;;;;5120430;27;20431;-61
2021/06/29 06:34:10;;;;;;;;;;;;;;;;;;5118074;27;19958;-61
2021/06/29 06:36:36;;;;;;;;;;;;;;;;;;5111201;27;20308;-61
2021/06/29 06:39:02;;;;;;;;;;;;;;;;;;5103471;27;19920;-61
2021/06/29 06:41:28;;;;;;;;;;;;;;;;;;5126707;27;19919;-60
2021/06/29 06:43:53;;;;;;;;;;;;;;;;;;5115995;27;20298;-61
2021/06/29 06:46:19;;;;;;;;;;;;;;;;;;5114524;27;19911;-60
2021/06/29 06:48:47;;;;;;;;;;;;;;;;;;5102197;27;19907;-60
2021/06/29 06:51:13;;;;;;;;;;;;;;;;;;5109727;27;20325;-60
2021/06/29 06:53:39;;;;;;;;;;;;;;;;;;5117912;27;19914;-61
2021/06/29 06:56:05;;;;;;;;;;;;;;;;;;5114579;27;19964;-60
2021/06/29 06:58:31;;;;;;;;;;;;;;;;;;5115957;27;19912;-61
2021/06/29 07:00:57;;;;;;;;;;;;;;;;;;5123489;27;20336;-60
2021/06/29 07:03:23;;;;;;;;;;;;;;;;;;5112149;27;20403;-61
2021/06/29 07:05:49;;;;;;;;;;;;;;;;;;5116120;27;19919;-60
2021/06/29 07:08:14;;;;;;;;;;;;;;;;;;5116193;27;20101;-61
2021/06/29 07:10:40;;;;;;;;;;;;;;;;;;5115000;27;19927;-60
2021/06/29 07:13:06;;;;;;;;;;;;;;;;;;5116528;27;19919;-60
2021/06/29 07:15:33;;;;;;;;;;;;;;;;;;5113106;27;21266;-60
2021/06/29 07:17:59;;;;;;;;;;;;;;;;;;5113013;27;19914;-61
2021/06/29 07:20:26;;;;;;;;;;;;;;;;;;5117049;27;20293;-60
2021/06/29 07:22:52;;;;;;;;;;;;;;;;;;5114485;27;20330;-61
2021/06/29 07:25:18;;;;;;;;;;;;;;;;;;5115397;27;19934;-60
2021/06/29 07:27:44;;;;;;;;;;;;;;;;;;5110024;28;20372;-61
2021/06/29 07:30:10;;;;;;;;;;;;;;;;;;5126795;27;19969;-61
2021/06/29 07:32:36;;;;;;;;;;;;;;;;;;5117641;27;19912;-60
2021/06/29 07:35:02;;;;;;;;;;;;;;;;;;5115029;27;19911;-60
2021/06/29 07:37:28;;;;;;;;;;;;;;;;;;5114564;27;19919;-61
2021/06/29 07:39:53;;;;;;;;;;;;;;;;;;5113263;27;19918;-60
2021/06/29 07:42:19;;;;;;;;;;;;;;;;;;5111196;27;20264;-61
2021/06/29 07:44:45;;;;;;;;;;;;;;;;;;5115932;27;19911;-61
2021/06/29 07:47:11;;;;;;;;;;;;;;;;;;5114746;27;19998;-61
2021/06/29 07:49:37;;;;;;;;;;;;;;;;;;5114379;27;20283;-61
2021/06/29 07:52:03;;;;;;;;;;;;;;;;;;5114200;27;20821;-61
2021/06/29 07:54:29;;;;;;;;;;;;;;;;;;5111718;27;19926;-60
2021/06/29 07:56:55;;;;;;;;;;;;;;;;;;5113646;27;20027;-61
2021/06/29 07:59:21;;;;;;;;;;;;;;;;;;5124090;27;19907;-60
2021/06/29 08:01:46;;;;;;;;;;;;;;;;;;5116978;27;19955;-60
2021/06/29 08:04:14;;;;;;;;;;;;;;;;;;5113466;27;19915;-60
2021/06/29 08:06:40;;;;;;;;;;;;;;;;;;5113518;27;20290;-60
2021/06/29 08:09:06;;;;;;;;;;;;;;;;;;5110240;27;19912;-61
2021/06/29 08:11:31;;;;;;;;;;;;;;;;;;5116013;27;19947;-61
2021/06/29 08:13:57;;;;;;;;;;;;;;;;;;5115782;27;19912;-60
2021/06/29 08:16:23;;;;;;;;;;;;;;;;;;5113499;27;19915;-60
2021/06/29 08:18:49;;;;;;;;;;;;;;;;;;5113189;27;19912;-60
2021/06/29 08:21:15;;;;;;;;;;;;;;;;;;5109381;27;19923;-61
2021/06/29 08:23:41;;;;;;;;;;;;;;;;;;5116971;27;20346;-61
2021/06/29 08:26:07;;;;;;;;;;;;;;;;;;5115272;27;19916;-59
2021/06/29 08:28:36;;;;;;;;;;;;;;;;;;5109023;27;19956;-59
2021/06/29 08:31:02;;;;;;;;;;;;;;;;;;5113285;27;19918;-59
2021/06/29 08:33:28;;;;;;;;;;;;;;;;;;5111277;27;19912;-58
2021/06/29 08:35:56;;;;;;;;;;;;;;;;;;5113993;27;20427;-59
2021/06/29 08:38:22;;;;;;;;;;;;;;;;;;5114657;27;19915;-60
2021/06/29 08:40:48;;;;;;;;;;;;;;;;;;5113244;27;19919;-59
2021/06/29 08:43:13;;;;;;;;;;;;;;;;;;5112931;27;20006;-59
2021/06/29 08:45:40;;;;;;;;;;;;;;;;;;5112819;27;19912;-59
2021/06/29 08:48:05;;;;;;;;;;;;;;;;;;5109994;27;20386;-59
2021/06/29 08:50:31;;;;;;;;;;;;;;;;;;5116197;27;19908;-59
2021/06/29 08:52:57;;;;;;;;;;;;;;;;;;5113399;27;19916;-59
2021/06/29 08:55:23;;;;;;;;;;;;;;;;;;5113381;27;19965;-59
2021/06/29 08:57:49;;;;;;;;;;;;;;;;;;5108472;27;20303;-59
2021/06/29 09:00:15;;;;;;;;;;;;;;;;;;5108895;28;19924;-59
2021/06/29 09:02:41;;;;;;;;;;;;;;;;;;5116285;27;20291;-59
2021/06/29 09:05:07;;;;;;;;;;;;;;;;;;5112641;27;19951;-59
2021/06/29 09:07:33;;;;;;;;;;;;;;;;;;5113258;27;20007;-59
2021/06/29 09:09:59;;;;;;;;;;;;;;;;;;5112804;27;19925;-59
2021/06/29 09:12:25;;;;;;;;;;;;;;;;;;5111951;27;19916;-59
2021/06/29 09:14:51;;;;;;;;;;;;;;;;;;5113229;27;19936;-59
2021/06/29 09:17:17;;;;;;;;;;;;;;;;;;5095596;28;20279;-59
2021/06/29 09:19:43;;;;;;;;;;;;;;;;;;5113209;28;19957;-59
2021/06/29 09:22:08;;;;;;;;;;;;;;;;;;5113000;28;19920;-59
2021/06/29 09:24:34;;;;;;;;;;;;;;;;;;5111132;28;19961;-59
2021/06/29 09:27:00;;;;;;;;;;;;;;;;;;5111561;28;20252;-59
2021/06/29 09:29:26;;;;;;;;;;;;;;;;;;5110090;28;19915;-60
2021/06/29 09:31:52;;;;;;;;;;;;;;;;;;5113435;28;20359;-60
2021/06/29 09:34:18;;;;;;;;;;;;;;;;;;5112917;28;19912;-59
2021/06/29 09:36:44;;;;;;;;;;;;;;;;;;5108076;28;20288;-59
2021/06/29 09:39:12;;;;;;;;;;;;;;;;;;5112425;28;19923;-59
2021/06/29 09:41:38;;;;;;;;;;;;;;;;;;5123521;28;20004;-59
2021/06/29 09:44:04;;;;;;;;;;;;;;;;;;5112520;28;19969;-59
2021/06/29 09:46:30;;;;;;;;;;;;;;;;;;5113193;28;20439;-59
2021/06/29 09:48:57;;;;;;;;;;;;;;;;;;5112788;28;19912;-59
2021/06/29 09:51:24;;;;;;;;;;;;;;;;;;5109644;28;19912;-60
2021/06/29 09:53:51;;;;;;;;;;;;;;;;;;5112981;28;19919;-59
2021/06/29 09:56:17;;;;;;;;;;;;;;;;;;5113836;28;19987;-60
2021/06/29 09:58:43;;;;;;;;;;;;;;;;;;5108003;28;20424;-60
2021/06/29 10:01:09;;;;;;;;;;;;;;;;;;5112739;28;19926;-60
2021/06/29 10:03:35;;;;;;;;;;;;;;;;;;5111681;28;19999;-60
2021/06/29 10:06:01;;;;;;;;;;;;;;;;;;5110505;28;19943;-60
2021/06/29 10:08:27;;;;;;;;;;;;;;;;;;5114379;28;19998;-60
2021/06/29 10:10:53;;;;;;;;;;;;;;;;;;5112774;28;19919;-60
2021/06/29 10:13:19;;;;;;;;;;;;;;;;;;5118544;27;19923;-66
2021/06/29 10:15:45;;;;;;;;;;;;;;;;;;5116497;27;20328;-65
2021/06/29 10:18:11;;;;;;;;;;;;;;;;;;5109933;28;19915;-66
2021/06/29 10:20:51;;;;;;;;;;;;;;;;;;5117742;27;19965;-68
2021/06/29 10:23:17;;;;;;;;;;;;;;;;;;5118244;27;19920;-68
2021/06/29 10:25:43;;;;;;;;;;;;;;;;;;5115842;27;19912;-67
2021/06/29 10:28:09;;;;;;;;;;;;;;;;;;5110476;28;19957;-68
2021/06/29 10:30:35;;;;;;;;;;;;;;;;;;5113670;27;20023;-66
2021/06/29 10:33:03;;;;;;;;;;;;;;;;;;5113430;27;19908;-66
2021/06/29 10:35:29;;;;;;;;;;;;;;;;;;5117131;27;19914;-67
2021/06/29 10:37:55;;;;;;;;;;;;;;;;;;5114459;27;19911;-67
2021/06/29 10:40:20;;;;;;;;;;;;;;;;;;5114319;27;19915;-66
2021/06/29 10:42:46;;;;;;;;;;;;;;;;;;5112008;27;19991;-67
2021/06/29 10:45:12;;;;;;;;;;;;;;;;;;5119657;27;20386;-67
2021/06/29 10:47:39;;;;;;;;;;;;;;;;;;5104703;27;19918;-67
2021/06/29 10:50:07;;;;;;;;;;;;;;;;;;5130362;27;19912;-68
2021/06/29 10:52:34;;;;;;;;;;;;;;;;;;5119999;27;19916;-65
2021/06/29 10:55:00;;;;;;;;;;;;;;;;;;5120832;27;19938;-65
2021/06/29 10:57:26;;;;;;;;;;;;;;;;;;5119577;27;20371;-66
2021/06/29 10:59:52;;;;;;;;;;;;;;;;;;5094543;28;19914;-66
2021/06/29 11:02:18;;;;;;;;;;;;;;;;;;5095745;28;19916;-67
2021/06/29 11:04:44;;;;;;;;;;;;;;;;;;5087067;28;20272;-65
2021/06/29 11:07:10;;;;;;;;;;;;;;;;;;5099249;28;19957;-65
2021/06/29 11:09:35;;;;;;;;;;;;;;;;;;5111607;28;20491;-66
2021/06/29 11:12:01;;;;;;;;;;;;;;;;;;5096758;28;19922;-65
2021/06/29 11:14:29;;;;;;;;;;;;;;;;;;5098898;27;20254;-65
2021/06/29 11:16:55;;;;;;;;;;;;;;;;;;5099321;28;20383;-65
2021/06/29 11:19:21;;;;;;;;;;;;;;;;;;5102360;28;19912;-66
2021/06/29 11:21:47;;;;;;;;;;;;;;;;;;5099004;28;20315;-65
2021/06/29 11:24:13;;;;;;;;;;;;;;;;;;5111432;28;19915;-66
2021/06/29 11:26:39;;;;;;;;;;;;;;;;;;5111985;28;19953;-66
2021/06/29 11:29:05;;;;;;;;;;;;;;;;;;5111018;28;19916;-66
2021/06/29 11:31:32;;;;;;;;;;;;;;;;;;5107275;28;19957;-66
2021/06/29 11:33:58;;;;;;;;;;;;;;;;;;5106355;28;19915;-66
2021/06/29 11:36:29;;;;;;;;;;;;;;;;;;5093253;28;20385;-66
2021/06/29 11:38:55;;;;;;;;;;;;;;;;;;5106886;28;19919;-66
2021/06/29 11:41:20;;;;;;;;;;;;;;;;;;5110024;28;19920;-66
2021/06/29 11:43:46;;;;;;;;;;;;;;;;;;5100106;28;19912;-66
2021/06/29 11:46:12;;;;;;;;;;;;;;;;;;5085768;28;20500;-65
2021/06/29 11:48:38;;;;;;;;;;;;;;;;;;5109401;28;19927;-66
2021/06/29 11:51:04;;;;;;;;;;;;;;;;;;5108776;28;19920;-66
2021/06/29 11:53:30;;;;;;;;;;;;;;;;;;5096282;28;19990;-66
2021/06/29 11:55:56;;;;;;;;;;;;;;;;;;5096990;28;19922;-66
2021/06/29 11:58:21;;;;;;;;;;;;;;;;;;5091348;28;19990;-66
2021/06/29 12:00:47;;;;;;;;;;;;;;;;;;5108935;28;19955;-66
2021/06/29 12:03:16;;;;;;;;;;;;;;;;;;5104676;28;19918;-66
2021/06/29 12:05:42;;;;;;;;;;;;;;;;;;5115314;27;19911;-66
2021/06/29 12:08:08;;;;;;;;;;;;;;;;;;5110781;27;20286;-66
2021/06/29 12:10:34;;;;;;;;;;;;;;;;;;5093884;28;19920;-66
2021/06/29 12:13:00;;;;;;;;;;;;;;;;;;5115325;27;19911;-66
2021/06/29 12:15:25;;;;;;;;;;;;;;;;;;5110100;27;19924;-67
2021/06/29 12:17:51;;;;;;;;;;;;;;;;;;5106159;27;20256;-67
2021/06/29 12:20:17;;;;;;;;;;;;;;;;;;5109333;27;19942;-68
2021/06/29 12:22:43;;;;;;;;;;;;;;;;;;5113098;27;20346;-66
2021/06/29 12:25:09;;;;;;;;;;;;;;;;;;5112587;27;19957;-68
2021/06/29 12:27:35;;;;;;;;;;;;;;;;;;5088939;27;19965;-65
2021/06/29 12:30:01;;;;;;;;;;;;;;;;;;5098939;28;20240;-65
2021/06/29 12:32:27;;;;;;;;;;;;;;;;;;5114856;27;19920;-65
2021/06/29 12:34:53;;;;;;;;;;;;;;;;;;5095748;28;20381;-66
2021/06/29 12:37:19;;;;;;;;;;;;;;;;;;5111335;27;19988;-65
2021/06/29 12:39:45;;;;;;;;;;;;;;;;;;5102556;27;19912;-66
2021/06/29 12:42:11;;;;;;;;;;;;;;;;;;5073414;28;19923;-66
2021/06/29 12:44:37;;;;;;;;;;;;;;;;;;5125134;27;19911;-65
2021/06/29 12:47:04;;;;;;;;;;;;;;;;;;5106645;27;20394;-66
2021/06/29 12:49:32;;;;;;;;;;;;;;;;;;5101366;28;19916;-65
2021/06/29 12:51:58;;;;;;;;;;;;;;;;;;5088261;27;20286;-65
2021/06/29 12:54:24;;;;;;;;;;;;;;;;;;5111653;27;19912;-65
2021/06/29 12:56:50;;;;;;;;;;;;;;;;;;5093401;28;19912;-65
2021/06/29 12:59:16;;;;;;;;;;;;;;;;;;5107882;28;20256;-66
2021/06/29 13:01:43;;;;;;;;;;;;;;;;;;5100026;28;19920;-65
2021/06/29 13:04:11;;;;;;;;;;;;;;;;;;5087672;28;19918;-65
2021/06/29 13:06:37;;;;;;;;;;;;;;;;;;5108955;28;19919;-65
2021/06/29 13:09:02;;;;;;;;;;;;;;;;;;5105012;28;19920;-65
2021/06/29 13:11:30;;;;;;;;;;;;;;;;;;5095760;28;19950;-65
2021/06/29 13:13:56;;;;;;;;;;;;;;;;;;5099482;28;20451;-65
2021/06/29 13:16:22;;;;;;;;;;;;;;;;;;5085969;28;19912;-66
2021/06/29 13:18:48;;;;;;;;;;;;;;;;;;5099293;28;19935;-67
2021/06/29 13:21:14;;;;;;;;;;;;;;;;;;5093076;28;20454;-65
2021/06/29 13:23:41;;;;;;;;;;;;;;;;;;5095829;28;20294;-67
2021/06/29 13:26:07;;;;;;;;;;;;;;;;;;5093953;28;20003;-66
2021/06/29 13:28:33;;;;;;;;;;;;;;;;;;5091633;28;19912;-66
2021/06/29 13:30:59;;;;;;;;;;;;;;;;;;5112147;28;19945;-64
2021/06/29 13:33:25;;;;;;;;;;;;;;;;;;5091322;28;19912;-64
2021/06/29 13:35:51;;;;;;;;;;;;;;;;;;5095401;28;20084;-64
2021/06/29 13:38:20;;;;;;;;;;;;;;;;;;5113638;28;19919;-66
2021/06/29 13:40:47;;;;;;;;;;;;;;;;;;5102740;28;19920;-65
2021/06/29 13:43:14;;;;;;;;;;;;;;;;;;5112897;28;19918;-66
2021/06/29 13:45:40;;;;;;;;;;;;;;;;;;5113021;27;20333;-65
2021/06/29 13:48:06;;;;;;;;;;;;;;;;;;5113636;27;19999;-65
2021/06/29 13:50:32;;;;;;;;;;;;;;;;;;5119683;27;19908;-65
2021/06/29 13:52:57;;;;;;;;;;;;;;;;;;5116426;27;20535;-66
2021/06/29 13:55:23;;;;;;;;;;;;;;;;;;5116917;27;20265;-65
2021/06/29 13:57:49;;;;;;;;;;;;;;;;;;5093237;28;19916;-65
2021/06/29 14:00:15;;;;;;;;;;;;;;;;;;5112474;27;19912;-65
2021/06/29 14:02:41;;;;;;;;;;;;;;;;;;5119416;27;19934;-65
2021/06/29 14:05:07;;;;;;;;;;;;;;;;;;5117167;27;19937;-65
2021/06/29 14:07:34;;;;;;;;;;;;;;;;;;5097826;28;20275;-66
2021/06/29 14:10:00;;;;;;;;;;;;;;;;;;5116000;27;19920;-65
2021/06/29 14:12:26;;;;;;;;;;;;;;;;;;5115924;27;19923;-65
2021/06/29 14:14:51;;;;;;;;;;;;;;;;;;5117124;27;19907;-65
2021/06/29 14:17:17;;;;;;;;;;;;;;;;;;5116925;27;20386;-65
2021/06/29 14:19:43;;;;;;;;;;;;;;;;;;5116079;27;19912;-65
2021/06/29 14:22:09;;;;;;;;;;;;;;;;;;5097950;28;20411;-65
2021/06/29 14:24:35;;;;;;;;;;;;;;;;;;5115068;27;20011;-65
2021/06/29 14:27:01;;;;;;;;;;;;;;;;;;5114209;27;19977;-65
2021/06/29 14:29:27;;;;;;;;;;;;;;;;;;5113469;28;19959;-67
2021/06/29 14:31:53;;;;;;;;;;;;;;;;;;5116033;27;20355;-65
2021/06/29 14:34:19;;;;;;;;;;;;;;;;;;5116085;27;20011;-65
2021/06/29 14:36:45;;;;;;;;;;;;;;;;;;5115995;27;19911;-66
2021/06/29 14:39:11;;;;;;;;;;;;;;;;;;5110660;28;19969;-66
2021/06/29 14:41:37;;;;;;;;;;;;;;;;;;5119248;27;19916;-66
2021/06/29 14:44:03;;;;;;;;;;;;;;;;;;5116420;27;19912;-66
2021/06/29 14:46:29;;;;;;;;;;;;;;;;;;5115116;27;19991;-64
2021/06/29 14:48:55;;;;;;;;;;;;;;;;;;5114764;27;19911;-67
2021/06/29 14:51:24;;;;;;;;;;;;;;;;;;5112551;27;19918;-67
2021/06/29 14:53:50;;;;;;;;;;;;;;;;;;5115997;27;19953;-67
2021/06/29 14:56:18;;;;;;;;;;;;;;;;;;5116309;27;19908;-67
2021/06/29 14:58:44;;;;;;;;;;;;;;;;;;5109719;28;19912;-64
2021/06/29 15:01:09;;;;;;;;;;;;;;;;;;5115209;27;19946;-67
2021/06/29 15:03:35;;;;;;;;;;;;;;;;;;5114080;27;19916;-66
2021/06/29 15:06:03;;;;;;;;;;;;;;;;;;5113825;27;19908;-67
2021/06/29 15:08:29;;;;;;;;;;;;;;;;;;5116817;27;19914;-67
2021/06/29 15:10:55;;;;;;;;;;;;;;;;;;5114535;27;19920;-67
2021/06/29 15:13:21;;;;;;;;;;;;;;;;;;5117380;27;19912;-69
2021/06/29 15:15:47;;;;;;;;;;;;;;;;;;5114292;27;19916;-69
2021/06/29 15:18:13;;;;;;;;;;;;;;;;;;5093658;28;20060;-68
2021/06/29 15:20:39;;;;;;;;;;;;;;;;;;5102486;28;20268;-68
2021/06/29 15:23:05;;;;;;;;;;;;;;;;;;5095590;28;19916;-70
2021/06/29 15:25:31;;;;;;;;;;;;;;;;;;5094051;28;19922;-72
2021/06/29 15:27:57;;;;;;;;;;;;;;;;;;5110232;28;20283;-68
2021/06/29 15:30:23;;;;;;;;;;;;;;;;;;5109810;28;19913;-68
2021/06/29 15:32:49;;;;;;;;;;;;;;;;;;5096014;28;20011;-67
2021/06/29 15:35:15;;;;;;;;;;;;;;;;;;5099602;28;19970;-68
2021/06/29 15:37:44;;;;;;;;;;;;;;;;;;5098980;28;19956;-68
2021/06/29 15:40:14;;;;;;;;;;;;;;;;;;5088084;28;19959;-68
2021/06/29 15:42:40;;;;;;;;;;;;;;;;;;5098109;28;19964;-67
2021/06/29 15:45:06;;;;;;;;;;;;;;;;;;5076462;28;19919;-68
2021/06/29 15:47:32;;;;;;;;;;;;;;;;;;5099052;28;19961;-68
2021/06/29 15:49:58;;;;;;;;;;;;;;;;;;5109337;28;19912;-67
2021/06/29 15:52:24;;;;;;;;;;;;;;;;;;5086283;28;19912;-67
2021/06/29 15:54:50;;;;;;;;;;;;;;;;;;5098676;28;20339;-67
2021/06/29 15:57:16;;;;;;;;;;;;;;;;;;5093437;28;20014;-68
2021/06/29 15:59:42;;;;;;;;;;;;;;;;;;5113150;28;19956;-68
2021/06/29 16:02:09;;;;;;;;;;;;;;;;;;5094945;28;20402;-67
2021/06/29 16:04:34;;;;;;;;;;;;;;;;;;5109994;27;19935;-67
2021/06/29 16:07:00;;;;;;;;;;;;;;;;;;5113237;27;20363;-68
2021/06/29 16:09:26;;;;;;;;;;;;;;;;;;5110819;27;19969;-67
2021/06/29 16:11:52;;;;;;;;;;;;;;;;;;5114144;27;20370;-67
2021/06/29 16:14:18;;;;;;;;;;;;;;;;;;5123542;27;19912;-67
2021/06/29 16:16:46;;;;;;;;;;;;;;;;;;5117092;27;19912;-67
2021/06/29 16:19:11;;;;;;;;;;;;;;;;;;5113241;27;19912;-69
2021/06/29 16:21:38;;;;;;;;;;;;;;;;;;5112088;27;19925;-67
2021/06/29 16:24:04;;;;;;;;;;;;;;;;;;5112042;27;20015;-67
2021/06/29 16:26:29;;;;;;;;;;;;;;;;;;5120592;27;20007;-66
2021/06/29 16:28:55;;;;;;;;;;;;;;;;;;5108773;28;19916;-65
2021/06/29 16:31:21;;;;;;;;;;;;;;;;;;5113821;27;20002;-66
2021/06/29 16:33:47;;;;;;;;;;;;;;;;;;5113558;27;19916;-66
2021/06/29 16:36:14;;;;;;;;;;;;;;;;;;5109227;28;19955;-68
2021/06/29 16:38:40;;;;;;;;;;;;;;;;;;5116436;27;19908;-67
2021/06/29 16:41:06;;;;;;;;;;;;;;;;;;5113265;27;19920;-67